Time,TemperatureF,DewpointF,PressureIn,WindDirection,WindDirectionDegrees,WindSpeedMPH,WindSpeedGustMPH,Humidity,HourlyPrecipIn,Conditions,Clouds,dailyrainin,SoftwareType,DateUTC
2013-04-10 00:00:00,70.3,55.8,29.42,SSW,206,0.0,0.0,60,0.00,CLR,,0.00,WeatherDisplay:10.37,2013-04-10 04:00:00,
2013-04-10 00:05:00,69.9,55.8,29.42,SSW,208,0.0,0.0,61,0.00,CLR,,0.00,WeatherDisplay:10.37,2013-04-10 04:05:00,
2013-04-10 00:10:00,69.9,55.8,29.42,SSW,209,2.3,2.3,61,0.00,CLR,,0.00,WeatherDisplay:10.37,2013-04-10 04:10:00,
2013-04-10 00:15:00,69.9,55.8,29.42,SW,216,5.8,5.8,61,0.00,CLR,,0.00,WeatherDisplay:10.37,2013-04-10 04:15:00,
2013-04-10 00:20:00,69.8,55.7,29.42,WSW,250,0.0,0.0,61,0.00,CLR,,0.00,WeatherDisplay:10.37,2013-04-10 04:20:00,
2013-04-10 00:25:00,69.8,55.7,29.41,SW,219,0.0,0.0,61,0.00,CLR,,0.00,WeatherDisplay:10.37,2013-04-10 04:25:00,
2013-04-10 00:30:00,69.6,56.0,29.41,SW,220,1.1,1.1,62,0.00,CLR,,0.00,WeatherDisplay:10.37,2013-04-10 04:30:00,
2013-04-10 00:35:00,69.4,55.8,29.41,SW,227,3.5,0.0,62,0.00,CLR,,0.00,WeatherDisplay:10.37,2013-04-10 04:35:00,
2013-04-10 00:40:00,69.4,55.8,29.41,South,185,5.8,0.0,62,0.00,CLR,,0.00,WeatherDisplay:10.37,2013-04-10 04:40:00,
2013-04-10 00:45:00,69.3,55.7,29.41,SW,220,3.5,3.5,62,0.00,CLR,,0.00,WeatherDisplay:10.37,2013-04-10 04:45:00,
2013-04-10 00:50:00,69.1,56.0,29.41,SW,232,1.1,1.1,63,0.00,CLR,,0.00,WeatherDisplay:10.37,2013-04-10 04:50:00,
2013-04-10 00:55:00,68.9,55.8,29.41,SW,216,0.0,0.0,63,0.00,CLR,,0.00,WeatherDisplay:10.37,2013-04-10 04:55:00,
2013-04-10 01:00:00,68.6,55.5,29.41,WSW,244,6.9,6.9,63,0.00,CLR,,0.00,WeatherDisplay:10.37,2013-04-10 05:00:00,
2013-04-10 01:05:00,68.4,55.7,29.41,WSW,244,0.0,0.0,64,0.00,CLR,,0.00,WeatherDisplay:10.37,2013-04-10 05:05:00,
2013-04-10 01:10:00,68.4,55.7,29.41,WSW,244,0.0,0.0,64,0.00,CLR,,0.00,WeatherDisplay:10.37,2013-04-10 05:10:00,
2013-04-10 01:15:00,68.1,55.5,29.41,WSW,244,0.0,0.0,64,0.00,CLR,,0.00,WeatherDisplay:10.37,2013-04-10 05:15:00,
2013-04-10 01:20:00,68.1,55.9,29.41,WSW,244,0.0,0.0,65,0.00,CLR,,0.00,WeatherDisplay:10.37,2013-04-10 05:20:00,
2013-04-10 01:25:00,67.8,55.6,29.40,WSW,244,0.0,0.0,65,0.00,CLR,,0.00,WeatherDisplay:10.37,2013-04-10 05:25:00,
2013-04-10 01:31:00,67.3,56.0,29.40,WSW,244,0.0,0.0,67,0.00,CLR,,0.00,WeatherDisplay:10.37,2013-04-10 05:31:00,
2013-04-10 01:36:00,67.1,55.8,29.40,WSW,244,0.0,0.0,67,0.00,CLR,,0.00,WeatherDisplay:10.37,2013-04-10 05:36:00,
2013-04-10 01:41:00,67.1,55.8,29.40,WSW,244,1.1,0.0,67,0.00,CLR,,0.00,WeatherDisplay:10.37,2013-04-10 05:41:00,
2013-04-10 01:46:00,66.8,55.9,29.40,WSW,244,0.0,0.0,68,0.00,CLR,,0.00,WeatherDisplay:10.37,2013-04-10 05:46:00,
2013-04-10 01:52:00,66.6,55.7,29.40,WSW,244,1.1,0.0,68,0.00,CLR,,0.00,WeatherDisplay:10.37,2013-04-10 05:52:00,
2013-04-10 01:57:00,66.6,55.7,29.40,SSW,202,2.0,2.0,68,0.00,CLR,,0.00,WeatherDisplay:10.37,2013-04-10 05:57:00,
2013-04-10 02:02:00,66.4,55.9,29.40,SW,220,2.0,2.5,69,0.00,CLR,,0.00,WeatherDisplay:10.37,2013-04-10 06:02:00,
2013-04-10 02:07:00,66.6,56.1,29.40,SW,224,1.1,1.1,69,0.00,CLR,,0.00,WeatherDisplay:10.37,2013-04-10 06:07:00,
2013-04-10 02:12:00,66.4,56.3,29.39,South,184,2.3,0.0,70,0.00,CLR,,0.00,WeatherDisplay:10.37,2013-04-10 06:12:00,
2013-04-10 02:17:00,66.1,56.0,29.39,SW,216,1.1,0.0,70,0.00,CLR,,0.00,WeatherDisplay:10.37,2013-04-10 06:17:00,
2013-04-10 02:22:00,66.3,56.2,29.39,SW,227,3.5,3.5,70,0.00,CLR,,0.00,WeatherDisplay:10.37,2013-04-10 06:22:00,
2013-04-10 02:27:00,66.0,56.3,29.39,SSW,203,0.0,2.5,71,0.00,CLR,,0.00,WeatherDisplay:10.37,2013-04-10 06:27:00,
2013-04-10 02:32:00,66.0,56.3,29.39,WSW,240,5.8,5.8,71,0.00,CLR,,0.00,WeatherDisplay:10.37,2013-04-10 06:32:00,
2013-04-10 02:37:00,65.8,56.1,29.39,SW,215,0.0,0.4,71,0.00,CLR,,0.00,WeatherDisplay:10.37,2013-04-10 06:37:00,
2013-04-10 02:42:00,65.8,56.5,29.39,SW,226,4.6,4.6,72,0.00,CLR,,0.00,WeatherDisplay:10.37,2013-04-10 06:42:00,
2013-04-10 02:47:00,65.8,56.5,29.39,SW,224,5.8,5.8,72,0.00,CLR,,0.00,WeatherDisplay:10.37,2013-04-10 06:47:00,
2013-04-10 02:52:00,65.8,56.5,29.39,SW,229,5.8,5.8,72,0.00,CLR,,0.00,WeatherDisplay:10.37,2013-04-10 06:52:00,
2013-04-10 02:57:00,65.6,56.3,29.39,WSW,237,6.9,6.9,72,0.00,CLR,,0.00,WeatherDisplay:10.37,2013-04-10 06:57:00,
2013-04-10 03:02:00,65.6,56.7,29.39,SW,232,5.8,5.8,73,0.00,CLR,,0.00,WeatherDisplay:10.37,2013-04-10 07:02:00,
2013-04-10 03:07:00,65.3,56.4,29.39,WSW,248,6.9,6.9,73,0.00,CLR,,0.00,WeatherDisplay:10.37,2013-04-10 07:07:00,
2013-04-10 03:12:00,65.2,56.3,29.39,West,260,6.9,6.9,73,0.00,CLR,,0.00,WeatherDisplay:10.37,2013-04-10 07:12:00,
2013-04-10 03:17:00,65.0,56.5,29.39,WSW,258,4.6,4.6,74,0.00,CLR,,0.00,WeatherDisplay:10.37,2013-04-10 07:17:00,
2013-04-10 03:22:00,65.0,56.5,29.39,SW,236,8.1,8.1,74,0.00,CLR,,0.00,WeatherDisplay:10.37,2013-04-10 07:22:00,
2013-04-10 03:28:00,65.0,56.5,29.39,SW,236,10.4,10.4,74,0.00,CLR,,0.00,WeatherDisplay:10.37,2013-04-10 07:28:00,
2013-04-10 03:33:00,65.0,56.5,29.39,SSW,212,5.8,5.8,74,0.00,CLR,,0.00,WeatherDisplay:10.37,2013-04-10 07:33:00,
2013-04-10 03:38:00,65.0,56.5,29.39,SSW,206,5.8,5.8,74,0.00,CLR,,0.00,WeatherDisplay:10.37,2013-04-10 07:38:00,
2013-04-10 03:43:00,65.0,56.5,29.40,SW,215,6.9,6.9,74,0.00,CLR,,0.00,WeatherDisplay:10.37,2013-04-10 07:43:00,
2013-04-10 03:48:00,64.8,56.3,29.40,SSW,213,6.9,6.9,74,0.00,CLR,,0.00,WeatherDisplay:10.37,2013-04-10 07:48:00,
2013-04-10 03:53:00,64.7,56.6,29.40,SW,236,3.5,3.5,75,0.00,CLR,,0.00,WeatherDisplay:10.37,2013-04-10 07:53:00,
2013-04-10 03:58:00,64.5,56.4,29.40,SW,216,5.8,5.8,75,0.00,CLR,,0.00,WeatherDisplay:10.37,2013-04-10 07:58:00,
2013-04-10 04:03:00,64.5,56.4,29.40,SW,219,3.5,3.5,75,0.00,CLR,,0.00,WeatherDisplay:10.37,2013-04-10 08:03:00,
2013-04-10 04:08:00,64.5,56.4,29.40,SW,230,6.9,6.9,75,0.00,CLR,,0.00,WeatherDisplay:10.37,2013-04-10 08:08:00,
2013-04-10 04:13:00,64.5,56.4,29.40,SW,220,3.5,3.5,75,0.00,CLR,,0.00,WeatherDisplay:10.37,2013-04-10 08:13:00,
2013-04-10 04:18:00,64.7,56.6,29.40,SW,217,5.8,5.8,75,0.00,CLR,,0.00,WeatherDisplay:10.37,2013-04-10 08:18:00,
2013-04-10 04:23:00,64.8,56.3,29.40,WSW,248,8.1,8.1,74,0.00,CLR,,0.00,WeatherDisplay:10.37,2013-04-10 08:23:00,
2013-04-10 04:28:00,65.0,56.5,29.40,South,191,6.9,6.9,74,0.00,CLR,,0.00,WeatherDisplay:10.37,2013-04-10 08:28:00,
2013-04-10 04:33:00,65.0,56.5,29.40,SW,234,6.9,6.9,74,0.00,CLR,,0.00,WeatherDisplay:10.37,2013-04-10 08:33:00,
2013-04-10 04:38:00,65.2,56.7,29.40,SW,220,9.2,9.2,74,0.00,CLR,,0.00,WeatherDisplay:10.37,2013-04-10 08:38:00,
2013-04-10 04:43:00,65.3,56.4,29.40,SW,222,8.0,8.0,73,0.00,CLR,,0.00,WeatherDisplay:10.37,2013-04-10 08:43:00,
2013-04-10 04:48:00,65.3,56.4,29.40,SW,216,5.8,5.8,73,0.00,CLR,,0.00,WeatherDisplay:10.37,2013-04-10 08:48:00,
2013-04-10 04:53:00,65.3,56.4,29.40,WSW,257,10.4,10.4,73,0.00,CLR,,0.00,WeatherDisplay:10.37,2013-04-10 08:53:00,
2013-04-10 04:58:00,65.3,56.8,29.40,West,260,3.5,3.5,74,0.00,CLR,,0.00,WeatherDisplay:10.37,2013-04-10 08:58:00,
2013-04-10 05:03:00,65.3,56.8,29.40,WSW,246,10.4,10.4,74,0.00,CLR,,0.00,WeatherDisplay:10.37,2013-04-10 09:03:00,
2013-04-10 05:08:00,65.2,56.7,29.40,SW,236,5.8,5.8,74,0.00,CLR,,0.00,WeatherDisplay:10.37,2013-04-10 09:08:00,
2013-04-10 05:13:00,65.2,56.7,29.40,WSW,256,11.5,11.5,74,0.00,CLR,,0.00,WeatherDisplay:10.37,2013-04-10 09:13:00,
2013-04-10 05:18:00,65.3,56.8,29.40,WSW,240,12.7,12.7,74,0.00,CLR,,0.00,WeatherDisplay:10.37,2013-04-10 09:18:00,
2013-04-10 05:23:00,65.3,57.2,29.40,SW,223,11.5,11.5,75,0.00,CLR,,0.00,WeatherDisplay:10.37,2013-04-10 09:23:00,
2013-04-10 05:28:00,65.2,57.1,29.41,West,261,11.5,11.5,75,0.00,CLR,,0.00,WeatherDisplay:10.37,2013-04-10 09:28:00,
2013-04-10 05:33:00,65.3,57.2,29.41,SSW,212,8.1,8.1,75,0.00,CLR,,0.00,WeatherDisplay:10.37,2013-04-10 09:33:00,
2013-04-10 05:38:00,65.2,57.1,29.41,SW,227,9.2,9.2,75,0.00,CLR,,0.00,WeatherDisplay:10.37,2013-04-10 09:38:00,
2013-04-10 05:43:00,65.2,57.1,29.41,WSW,239,11.5,11.5,75,0.00,CLR,,0.00,WeatherDisplay:10.37,2013-04-10 09:43:00,
2013-04-10 05:48:00,65.2,57.1,29.41,SW,220,11.5,11.5,75,0.00,CLR,,0.00,WeatherDisplay:10.37,2013-04-10 09:48:00,
2013-04-10 05:53:00,65.2,57.4,29.41,SSW,202,8.1,8.1,76,0.00,CLR,,0.00,WeatherDisplay:10.37,2013-04-10 09:53:00,
2013-04-10 05:58:00,65.2,57.4,29.41,WSW,243,11.5,11.5,76,0.00,CLR,,0.00,WeatherDisplay:10.37,2013-04-10 09:58:00,
2013-04-10 06:03:00,65.0,57.2,29.41,SW,222,8.1,8.1,76,0.00,CLR,,0.00,WeatherDisplay:10.37,2013-04-10 10:03:00,
2013-04-10 06:08:00,65.0,57.2,29.41,West,260,13.0,13.0,76,0.00,CLR,,0.00,WeatherDisplay:10.37,2013-04-10 10:08:00,
2013-04-10 06:13:00,64.8,57.4,29.41,WSW,257,6.9,6.9,77,0.00,CLR,,0.00,WeatherDisplay:10.37,2013-04-10 10:13:00,
2013-04-10 06:18:00,64.8,57.4,29.41,WSW,256,8.1,8.1,77,0.00,CLR,,0.00,WeatherDisplay:10.37,2013-04-10 10:18:00,
2013-04-10 06:23:00,64.8,57.4,29.41,SW,230,11.5,11.5,77,0.00,CLR,,0.00,WeatherDisplay:10.37,2013-04-10 10:23:00,
2013-04-10 06:28:00,64.7,57.3,29.41,SW,232,12.7,12.7,77,0.00,CLR,,0.00,WeatherDisplay:10.37,2013-04-10 10:28:00,
2013-04-10 06:33:00,64.7,57.7,29.41,SW,232,11.5,11.5,78,0.00,CLR,,0.00,WeatherDisplay:10.37,2013-04-10 10:33:00,
2013-04-10 06:38:00,64.5,57.5,29.41,SW,217,9.2,9.2,78,0.00,CLR,,0.00,WeatherDisplay:10.37,2013-04-10 10:38:00,
2013-04-10 06:43:00,64.5,57.5,29.41,WSW,253,9.2,9.2,78,0.00,CLR,,0.00,WeatherDisplay:10.37,2013-04-10 10:43:00,
2013-04-10 06:48:00,64.3,57.6,29.41,West,260,7.0,7.0,79,0.00,CLR,,0.00,WeatherDisplay:10.37,2013-04-10 10:48:00,
2013-04-10 06:53:00,64.2,57.5,29.41,WSW,239,8.1,8.1,79,0.00,CLR,,0.00,WeatherDisplay:10.37,2013-04-10 10:53:00,
2013-04-10 06:58:00,64.2,57.5,29.42,WSW,250,10.4,10.4,79,0.00,CLR,,0.00,WeatherDisplay:10.37,2013-04-10 10:58:00,
2013-04-10 07:03:00,64.0,57.4,29.42,WSW,244,6.9,6.9,79,0.00,CLR,,0.00,WeatherDisplay:10.37,2013-04-10 11:03:00,
2013-04-10 07:08:00,64.0,57.7,29.42,SW,234,8.1,8.1,80,0.00,CLR,,0.00,WeatherDisplay:10.37,2013-04-10 11:08:00,
2013-04-10 07:13:00,64.0,57.7,29.42,SW,223,5.8,5.8,80,0.00,CLR,,0.00,WeatherDisplay:10.37,2013-04-10 11:13:00,
2013-04-10 07:18:00,63.9,57.6,29.42,WSW,239,7.0,7.0,80,0.00,CLR,,0.00,WeatherDisplay:10.37,2013-04-10 11:18:00,
2013-04-10 07:23:00,64.0,57.7,29.42,WSW,243,7.0,7.0,80,0.00,CLR,,0.00,WeatherDisplay:10.37,2013-04-10 11:23:00,
2013-04-10 07:29:00,64.2,57.9,29.42,West,264,11.5,11.5,80,0.00,CLR,,0.00,WeatherDisplay:10.37,2013-04-10 11:29:00,
2013-04-10 07:34:00,64.2,57.9,29.42,WSW,258,8.1,8.1,80,0.00,CLR,,0.00,WeatherDisplay:10.37,2013-04-10 11:34:00,
2013-04-10 07:39:00,64.3,58.0,29.42,WSW,246,10.0,10.0,80,0.00,CLR,,0.00,WeatherDisplay:10.37,2013-04-10 11:39:00,
2013-04-10 07:44:00,64.3,58.0,29.42,WSW,246,10.4,10.4,80,0.00,CLR,,0.00,WeatherDisplay:10.37,2013-04-10 11:44:00,
2013-04-10 07:49:00,64.3,58.0,29.42,SW,224,8.1,8.1,80,0.00,CLR,,0.00,WeatherDisplay:10.37,2013-04-10 11:49:00,
2013-04-10 07:54:00,64.5,58.2,29.42,West,263,10.4,10.4,80,0.00,CLR,,0.00,WeatherDisplay:10.37,2013-04-10 11:54:00,
2013-04-10 07:59:00,64.5,58.2,29.42,SSW,210,10.4,10.4,80,0.00,CLR,,0.00,WeatherDisplay:10.37,2013-04-10 11:59:00,
2013-04-10 08:04:00,64.5,58.2,29.42,SW,232,5.8,5.8,80,0.00,CLR,,0.00,WeatherDisplay:10.37,2013-04-10 12:04:00,
2013-04-10 08:09:00,64.5,58.2,29.42,West,267,6.9,6.9,80,0.00,CLR,,0.00,WeatherDisplay:10.37,2013-04-10 12:09:00,
2013-04-10 08:14:00,64.5,58.2,29.42,WSW,248,8.1,8.1,80,0.00,CLR,,0.00,WeatherDisplay:10.37,2013-04-10 12:14:00,
2013-04-10 08:19:00,64.5,58.2,29.42,SSW,212,10.4,10.4,80,0.00,CLR,,0.00,WeatherDisplay:10.37,2013-04-10 12:19:00,
2013-04-10 08:24:00,64.8,58.5,29.42,WSW,253,8.1,8.1,80,0.00,CLR,,0.00,WeatherDisplay:10.37,2013-04-10 12:24:00,
2013-04-10 08:29:00,65.2,58.5,29.43,SW,219,8.1,8.1,79,0.00,CLR,,0.00,WeatherDisplay:10.37,2013-04-10 12:29:00,
2013-04-10 08:34:00,65.6,58.6,29.43,West,280,11.5,11.5,78,0.00,CLR,,0.00,WeatherDisplay:10.37,2013-04-10 12:34:00,
2013-04-10 08:39:00,66.0,58.6,29.43,SW,226,11.5,11.5,77,0.00,CLR,,0.00,WeatherDisplay:10.37,2013-04-10 12:39:00,
2013-04-10 08:44:00,66.4,58.6,29.43,WSW,254,13.8,13.8,76,0.00,CLR,,0.00,WeatherDisplay:10.37,2013-04-10 12:44:00,
2013-04-10 08:49:00,67.1,58.9,29.43,WSW,240,11.5,11.5,75,0.00,CLR,,0.00,WeatherDisplay:10.37,2013-04-10 12:49:00,
2013-04-10 08:54:00,67.4,58.8,29.43,WSW,257,13.8,13.8,74,0.00,CLR,,0.00,WeatherDisplay:10.37,2013-04-10 12:54:00,
2013-04-10 08:59:00,67.8,58.8,29.43,West,263,15.0,15.0,73,0.00,CLR,,0.00,WeatherDisplay:10.37,2013-04-10 12:59:00,
2013-04-10 09:04:00,68.1,58.7,29.43,West,260,16.1,16.1,72,0.00,CLR,,0.00,WeatherDisplay:10.37,2013-04-10 13:04:00,
2013-04-10 09:09:00,68.3,58.9,29.43,WSW,253,13.8,13.8,72,0.00,CLR,,0.00,WeatherDisplay:10.37,2013-04-10 13:09:00,
2013-04-10 09:14:00,68.4,59.0,29.43,SW,232,17.3,17.3,72,0.00,CLR,,0.00,WeatherDisplay:10.37,2013-04-10 13:14:00,
2013-04-10 09:19:00,68.6,58.8,29.43,West,261,13.8,13.8,71,0.00,CLR,,0.00,WeatherDisplay:10.37,2013-04-10 13:19:00,
2013-04-10 09:24:00,68.9,58.7,29.43,WSW,254,12.0,12.0,70,0.00,CLR,,0.00,WeatherDisplay:10.37,2013-04-10 13:24:00,
2013-04-10 09:29:00,69.4,59.2,29.43,SW,224,11.5,11.5,70,0.00,CLR,,0.00,WeatherDisplay:10.37,2013-04-10 13:29:00,
2013-04-10 09:34:00,69.8,59.6,29.43,WSW,256,8.1,8.1,70,0.00,CLR,,0.00,WeatherDisplay:10.37,2013-04-10 13:34:00,
2013-04-10 09:39:00,70.1,59.5,29.43,SW,227,11.5,11.5,69,0.00,CLR,,0.00,WeatherDisplay:10.37,2013-04-10 13:39:00,
2013-04-10 09:44:00,70.6,59.1,29.43,SSW,210,10.4,10.4,67,0.00,CLR,,0.00,WeatherDisplay:10.37,2013-04-10 13:44:00,
2013-04-10 09:49:00,70.8,59.3,29.43,WSW,258,17.3,17.3,67,0.00,CLR,,0.00,WeatherDisplay:10.37,2013-04-10 13:49:00,
2013-04-10 09:54:00,70.8,59.3,29.43,WSW,253,18.0,18.0,67,0.00,CLR,,0.00,WeatherDisplay:10.37,2013-04-10 13:54:00,
2013-04-10 09:59:00,70.9,59.8,29.43,WSW,257,11.5,11.5,68,0.00,CLR,,0.00,WeatherDisplay:10.37,2013-04-10 13:59:00,
2013-04-10 10:04:00,71.1,59.2,29.43,WSW,239,12.7,12.7,66,0.00,CLR,,0.00,WeatherDisplay:10.37,2013-04-10 14:04:00,
2013-04-10 10:09:00,71.1,59.2,29.43,WSW,251,12.7,12.7,66,0.00,CLR,,0.00,WeatherDisplay:10.37,2013-04-10 14:09:00,
2013-04-10 10:14:00,71.3,59.4,29.43,WSW,239,10.4,10.4,66,0.00,CLR,,0.00,WeatherDisplay:10.37,2013-04-10 14:14:00,
2013-04-10 10:19:00,71.8,59.4,29.43,WSW,258,5.8,5.8,65,0.00,CLR,,0.00,WeatherDisplay:10.37,2013-04-10 14:19:00,
2013-04-10 10:24:00,72.3,59.4,29.43,SW,236,11.5,11.5,64,0.00,CLR,,0.00,WeatherDisplay:10.37,2013-04-10 14:24:00,
2013-04-10 10:29:00,72.5,59.6,29.43,WSW,244,11.5,11.5,64,0.00,CLR,,0.00,WeatherDisplay:10.37,2013-04-10 14:29:00,
2013-04-10 10:34:00,73.0,59.7,29.43,WSW,253,11.5,11.5,63,0.00,CLR,,0.00,WeatherDisplay:10.37,2013-04-10 14:34:00,
2013-04-10 10:39:00,73.0,59.7,29.43,West,264,11.5,11.5,63,0.00,CLR,,0.00,WeatherDisplay:10.37,2013-04-10 14:39:00,
2013-04-10 10:44:00,73.3,59.0,29.43,SW,216,10.4,10.4,61,0.00,CLR,,0.00,WeatherDisplay:10.37,2013-04-10 14:44:00,
2013-04-10 10:49:00,73.7,59.4,29.43,SW,229,8.1,8.1,61,0.00,CLR,,0.00,WeatherDisplay:10.37,2013-04-10 14:49:00,
2013-04-10 10:54:00,74.2,58.5,29.43,WSW,247,8.1,8.8,58,0.00,CLR,,0.00,WeatherDisplay:10.37,2013-04-10 14:54:00,
2013-04-10 10:59:00,74.6,59.3,29.43,SW,226,11.5,11.5,59,0.00,CLR,,0.00,WeatherDisplay:10.37,2013-04-10 14:59:00,
2013-04-10 11:04:00,74.7,59.4,29.43,WSW,258,10.4,10.4,59,0.00,CLR,,0.00,WeatherDisplay:10.37,2013-04-10 15:04:00,
2013-04-10 11:09:00,75.3,60.0,29.43,NNW,333,9.2,9.2,59,0.00,CLR,,0.00,WeatherDisplay:10.37,2013-04-10 15:09:00,
2013-04-10 11:14:00,75.8,59.5,29.43,WSW,247,5.8,5.8,57,0.00,CLR,,0.00,WeatherDisplay:10.37,2013-04-10 15:14:00,
2013-04-10 11:19:00,76.3,59.4,29.43,SW,232,4.0,4.0,56,0.00,CLR,,0.00,WeatherDisplay:10.37,2013-04-10 15:19:00,
2013-04-10 11:24:00,76.5,59.1,29.43,WSW,240,8.1,8.1,55,0.00,CLR,,0.00,WeatherDisplay:10.37,2013-04-10 15:24:00,
2013-04-10 11:29:00,76.7,59.3,29.43,West,265,6.9,6.9,55,0.00,CLR,,0.00,WeatherDisplay:10.37,2013-04-10 15:29:00,
2013-04-10 11:34:00,76.8,59.4,29.43,WSW,257,8.1,8.1,55,0.00,CLR,,0.00,WeatherDisplay:10.37,2013-04-10 15:34:00,
2013-04-10 11:39:00,76.8,58.9,29.43,NW,312,8.1,8.1,54,0.00,CLR,,0.00,WeatherDisplay:10.37,2013-04-10 15:39:00,
2013-04-10 11:44:00,77.2,58.7,29.43,SSW,209,5.8,5.8,53,0.00,CLR,,0.00,WeatherDisplay:10.37,2013-04-10 15:44:00,
2013-04-10 11:49:00,77.9,58.9,29.43,West,261,6.0,6.0,52,0.00,CLR,,0.00,WeatherDisplay:10.37,2013-04-10 15:49:00,
2013-04-10 11:54:00,78.3,59.8,29.43,WSW,244,4.6,4.6,53,0.00,CLR,,0.00,WeatherDisplay:10.37,2013-04-10 15:54:00,
2013-04-10 11:59:00,79.2,59.0,29.42,SW,230,4.6,4.6,50,0.00,CLR,,0.00,WeatherDisplay:10.37,2013-04-10 15:59:00,
2013-04-10 12:04:00,79.2,59.0,29.42,WNW,294,6.9,6.9,50,0.00,CLR,,0.00,WeatherDisplay:10.37,2013-04-10 16:04:00,
2013-04-10 12:09:00,79.2,59.0,29.42,WSW,239,6.9,6.9,50,0.00,CLR,,0.00,WeatherDisplay:10.37,2013-04-10 16:09:00,
2013-04-10 12:14:00,79.6,58.8,29.42,West,263,9.2,9.2,49,0.00,CLR,,0.00,WeatherDisplay:10.37,2013-04-10 16:14:00,
2013-04-10 12:19:00,79.8,57.8,29.42,SW,230,11.5,11.5,47,0.00,CLR,,0.00,WeatherDisplay:10.37,2013-04-10 16:19:00,
2013-04-10 12:24:00,80.1,57.5,29.42,WSW,247,6.9,6.9,46,0.00,CLR,,0.00,WeatherDisplay:10.37,2013-04-10 16:24:00,
2013-04-10 12:29:00,80.1,57.5,29.41,West,275,8.1,8.1,46,0.00,CLR,,0.00,WeatherDisplay:10.37,2013-04-10 16:29:00,
2013-04-10 12:34:00,80.5,58.4,29.41,West,271,5.8,5.8,47,0.00,CLR,,0.00,WeatherDisplay:10.37,2013-04-10 16:34:00,
2013-04-10 12:39:00,81.1,58.4,29.41,SW,229,4.6,4.6,46,0.00,CLR,,0.00,WeatherDisplay:10.37,2013-04-10 16:39:00,
2013-04-10 12:44:00,81.2,57.2,29.40,WNW,291,6.9,6.9,44,0.00,CLR,,0.00,WeatherDisplay:10.37,2013-04-10 16:44:00,
2013-04-10 12:49:00,81.4,57.4,29.40,WNW,288,3.5,3.5,44,0.00,CLR,,0.00,WeatherDisplay:10.37,2013-04-10 16:49:00,
2013-04-10 12:54:00,81.6,53.5,29.40,West,278,8.1,8.1,38,0.00,CLR,,0.00,WeatherDisplay:10.37,2013-04-10 16:54:00,
2013-04-10 12:59:00,81.8,53.7,29.40,West,278,11.5,11.5,38,0.00,CLR,,0.00,WeatherDisplay:10.37,2013-04-10 16:59:00,
2013-04-10 13:04:00,82.2,58.1,29.40,WSW,247,3.5,3.5,44,0.00,CLR,,0.00,WeatherDisplay:10.37,2013-04-10 17:04:00,
2013-04-10 13:09:00,82.4,55.7,29.40,WSW,241,10.4,10.4,40,0.00,CLR,,0.00,WeatherDisplay:10.37,2013-04-10 17:09:00,
2013-04-10 13:14:00,82.2,54.8,29.39,SW,220,6.9,6.9,39,0.00,CLR,,0.00,WeatherDisplay:10.37,2013-04-10 17:14:00,
2013-04-10 13:19:00,83.4,59.2,29.39,West,272,5.0,5.0,44,0.00,CLR,,0.00,WeatherDisplay:10.37,2013-04-10 17:19:00,
2013-04-10 13:24:00,83.2,55.0,29.39,WSW,243,8.1,8.1,38,0.00,CLR,,0.00,WeatherDisplay:10.37,2013-04-10 17:24:00,
2013-04-10 13:29:00,83.0,54.8,29.39,WNW,289,5.8,5.8,38,0.00,CLR,,0.00,WeatherDisplay:10.37,2013-04-10 17:29:00,
2013-04-10 13:34:00,83.4,56.5,29.39,West,275,8.1,8.1,40,0.00,CLR,,0.00,WeatherDisplay:10.37,2013-04-10 17:34:00,
2013-04-10 13:39:00,83.8,57.6,29.39,WNW,288,2.3,2.3,41,0.00,CLR,,0.00,WeatherDisplay:10.37,2013-04-10 17:39:00,
2013-04-10 13:44:00,84.0,56.4,29.39,SW,215,4.6,4.6,39,0.00,CLR,,0.00,WeatherDisplay:10.37,2013-04-10 17:44:00,
2013-04-10 13:49:00,84.1,55.7,29.39,SSW,193,4.6,4.6,38,0.00,CLR,,0.00,WeatherDisplay:10.37,2013-04-10 17:49:00,
2013-04-10 13:54:00,84.3,55.2,29.39,SW,217,10.4,10.4,37,0.00,CLR,,0.00,WeatherDisplay:10.37,2013-04-10 17:54:00,
2013-04-10 13:59:00,84.5,56.1,29.38,South,169,0.0,0.0,38,0.00,CLR,,0.00,WeatherDisplay:10.37,2013-04-10 17:59:00,
2013-04-10 14:04:00,84.7,54.0,29.38,West,264,11.5,11.5,35,0.00,CLR,,0.00,WeatherDisplay:10.37,2013-04-10 18:04:00,
2013-04-10 14:09:00,84.5,55.4,29.38,WSW,247,5.8,5.8,37,0.00,CLR,,0.00,WeatherDisplay:10.37,2013-04-10 18:09:00,
2013-04-10 14:14:00,84.5,55.4,29.38,West,267,8.1,8.1,37,0.00,CLR,,0.00,WeatherDisplay:10.37,2013-04-10 18:14:00,
2013-04-10 14:19:00,84.5,56.1,29.38,WNW,291,3.5,3.5,38,0.00,CLR,,0.00,WeatherDisplay:10.37,2013-04-10 18:19:00,
2013-04-10 14:24:00,84.9,57.2,29.38,SW,220,10.4,10.4,39,0.00,CLR,,0.00,WeatherDisplay:10.37,2013-04-10 18:24:00,
2013-04-10 14:29:00,84.5,58.2,29.37,West,267,12.7,12.7,41,0.00,CLR,,0.00,WeatherDisplay:10.37,2013-04-10 18:29:00,
2013-04-10 14:34:00,84.5,55.4,29.37,WSW,256,10.4,10.4,37,0.00,CLR,,0.00,WeatherDisplay:10.37,2013-04-10 18:34:00,
2013-04-10 14:39:00,84.7,58.4,29.37,West,270,10.4,10.4,41,0.00,CLR,,0.00,WeatherDisplay:10.37,2013-04-10 18:39:00,
2013-04-10 14:44:00,84.7,56.3,29.36,West,270,15.0,15.0,38,0.00,CLR,,0.00,WeatherDisplay:10.37,2013-04-10 18:44:00,
2013-04-10 14:49:00,84.5,56.1,29.36,WSW,244,12.7,12.7,38,0.00,CLR,,0.00,WeatherDisplay:10.37,2013-04-10 18:49:00,
2013-04-10 14:54:00,84.7,54.8,29.36,SW,234,12.7,12.7,36,0.00,CLR,,0.00,WeatherDisplay:10.37,2013-04-10 18:54:00,
2013-04-10 14:59:00,84.7,54.8,29.35,WSW,250,3.5,3.5,36,0.00,CLR,,0.00,WeatherDisplay:10.37,2013-04-10 18:59:00,
2013-04-10 15:04:00,84.3,54.4,29.35,NW,306,10.4,10.4,36,0.00,CLR,,0.00,WeatherDisplay:10.37,2013-04-10 19:04:00,
2013-04-10 15:09:00,84.5,55.4,29.35,WNW,285,8.1,8.1,37,0.00,CLR,,0.00,WeatherDisplay:10.37,2013-04-10 19:09:00,
2013-04-10 15:14:00,84.5,53.8,29.35,South,188,12.7,12.7,35,0.00,CLR,,0.00,WeatherDisplay:10.37,2013-04-10 19:14:00,
2013-04-10 15:19:00,85.1,53.6,29.35,SW,216,11.5,11.5,34,0.00,CLR,,0.00,WeatherDisplay:10.37,2013-04-10 19:19:00,
2013-04-10 15:24:00,85.3,53.8,29.35,South,182,3.5,3.5,34,0.00,CLR,,0.00,WeatherDisplay:10.37,2013-04-10 19:24:00,
2013-04-10 15:29:00,85.3,53.8,29.34,SSE,167,3.5,3.5,34,0.00,CLR,,0.00,WeatherDisplay:10.37,2013-04-10 19:29:00,
2013-04-10 15:34:00,85.5,54.7,29.34,WSW,250,8.1,8.1,35,0.00,CLR,,0.00,WeatherDisplay:10.37,2013-04-10 19:34:00,
2013-04-10 15:39:00,85.7,55.7,29.34,SSW,196,10.4,10.4,36,0.00,CLR,,0.00,WeatherDisplay:10.37,2013-04-10 19:39:00,
2013-04-10 15:44:00,85.9,55.8,29.33,South,174,5.8,5.8,36,0.00,CLR,,0.00,WeatherDisplay:10.37,2013-04-10 19:44:00,
2013-04-10 15:49:00,86.1,55.2,29.33,West,277,5.8,5.8,35,0.00,CLR,,0.00,WeatherDisplay:10.37,2013-04-10 19:49:00,
2013-04-10 15:54:00,86.1,55.2,29.33,SSE,164,4.6,4.6,35,0.00,CLR,,0.00,WeatherDisplay:10.37,2013-04-10 19:54:00,
2013-04-10 15:59:00,85.9,55.8,29.32,WSW,243,12.7,12.7,36,0.00,CLR,,0.00,WeatherDisplay:10.37,2013-04-10 19:59:00,
2013-04-10 16:04:00,85.9,55.1,29.32,WSW,248,1.1,2.2,35,0.00,CLR,,0.00,WeatherDisplay:10.37,2013-04-10 20:04:00,
2013-04-10 16:09:00,86.3,53.8,29.32,West,271,10.4,10.4,33,0.00,CLR,,0.00,WeatherDisplay:10.37,2013-04-10 20:09:00,
2013-04-10 16:14:00,85.7,54.1,29.32,WSW,254,7.0,7.0,34,0.00,CLR,,0.00,WeatherDisplay:10.37,2013-04-10 20:14:00,
2013-04-10 16:19:00,85.3,54.5,29.32,SW,226,13.8,13.8,35,0.00,CLR,,0.00,WeatherDisplay:10.37,2013-04-10 20:19:00,
2013-04-10 16:24:00,84.9,54.2,29.32,SW,227,12.7,12.7,35,0.00,CLR,,0.00,WeatherDisplay:10.37,2013-04-10 20:24:00,
2013-04-10 16:29:00,85.3,53.8,29.31,SW,226,13.8,13.8,34,0.00,CLR,,0.00,WeatherDisplay:10.37,2013-04-10 20:29:00,
2013-04-10 16:34:00,85.5,53.9,29.31,WSW,257,11.5,11.5,34,0.00,CLR,,0.00,WeatherDisplay:10.37,2013-04-10 20:34:00,
2013-04-10 16:39:00,85.3,53.8,29.31,West,275,11.5,11.5,34,0.00,CLR,,0.00,WeatherDisplay:10.37,2013-04-10 20:39:00,
2013-04-10 16:44:00,85.5,53.1,29.31,WSW,250,6.0,6.0,33,0.00,CLR,,0.00,WeatherDisplay:10.37,2013-04-10 20:44:00,
2013-04-10 16:49:00,85.7,54.1,29.31,SW,224,11.5,11.5,34,0.00,CLR,,0.00,WeatherDisplay:10.37,2013-04-10 20:49:00,
2013-04-10 16:54:00,86.1,54.5,29.31,SW,215,8.1,8.1,34,0.00,CLR,,0.00,WeatherDisplay:10.37,2013-04-10 20:54:00,
2013-04-10 16:59:00,85.9,52.6,29.31,West,271,10.4,10.4,32,0.00,CLR,,0.00,WeatherDisplay:10.37,2013-04-10 20:59:00,
2013-04-10 17:04:00,85.7,53.3,29.31,South,181,11.5,11.5,33,0.00,CLR,,0.00,WeatherDisplay:10.37,2013-04-10 21:04:00,
2013-04-10 17:09:00,85.7,54.1,29.31,WSW,250,10.4,10.4,34,0.00,CLR,,0.00,WeatherDisplay:10.37,2013-04-10 21:09:00,
2013-04-10 17:14:00,85.9,52.6,29.30,SSW,198,8.1,8.1,32,0.00,CLR,,0.00,WeatherDisplay:10.37,2013-04-10 21:14:00,
2013-04-10 17:19:00,85.9,53.5,29.30,South,172,11.5,11.5,33,0.00,CLR,,0.00,WeatherDisplay:10.37,2013-04-10 21:19:00,
2013-04-10 17:24:00,85.9,53.5,29.30,WSW,257,5.8,5.8,33,0.00,CLR,,0.00,WeatherDisplay:10.37,2013-04-10 21:24:00,
2013-04-10 17:29:00,85.9,54.3,29.30,WSW,248,12.7,12.7,34,0.00,CLR,,0.00,WeatherDisplay:10.37,2013-04-10 21:29:00,
2013-04-10 17:34:00,86.1,53.6,29.30,SSW,199,11.5,11.5,33,0.00,CLR,,0.00,WeatherDisplay:10.37,2013-04-10 21:34:00,
2013-04-10 17:39:00,85.9,53.5,29.30,WSW,247,13.8,13.8,33,0.00,CLR,,0.00,WeatherDisplay:10.37,2013-04-10 21:39:00,
2013-04-10 17:44:00,85.3,52.9,29.30,WSW,246,9.0,9.0,33,0.00,CLR,,0.00,WeatherDisplay:10.37,2013-04-10 21:44:00,
2013-04-10 17:49:00,85.1,52.8,29.30,WSW,248,13.8,13.8,33,0.00,CLR,,0.00,WeatherDisplay:10.37,2013-04-10 21:49:00,
2013-04-10 17:54:00,85.1,54.4,29.30,NW,315,6.9,6.9,35,0.00,CLR,,0.00,WeatherDisplay:10.37,2013-04-10 21:54:00,
2013-04-10 17:59:00,85.1,53.6,29.30,WSW,247,6.9,6.9,34,0.00,CLR,,0.00,WeatherDisplay:10.37,2013-04-10 21:59:00,
2013-04-10 18:04:00,84.9,53.4,29.30,WNW,285,11.5,11.5,34,0.00,CLR,,0.00,WeatherDisplay:10.37,2013-04-10 22:04:00,
2013-04-10 18:09:00,84.9,54.2,29.30,WNW,284,10.4,10.4,35,0.00,CLR,,0.00,WeatherDisplay:10.37,2013-04-10 22:09:00,
2013-04-10 18:14:00,84.7,54.8,29.29,SSW,206,6.9,6.9,36,0.00,CLR,,0.00,WeatherDisplay:10.37,2013-04-10 22:14:00,
2013-04-10 18:19:00,84.7,54.8,29.29,West,277,11.5,11.5,36,0.00,CLR,,0.00,WeatherDisplay:10.37,2013-04-10 22:19:00,
2013-04-10 18:25:00,84.3,54.4,29.29,WSW,246,12.7,12.7,36,0.00,CLR,,0.00,WeatherDisplay:10.37,2013-04-10 22:25:00,
2013-04-10 18:30:00,84.1,55.0,29.29,SW,223,11.5,11.5,37,0.00,CLR,,0.00,WeatherDisplay:10.37,2013-04-10 22:30:00,
2013-04-10 18:35:00,84.1,55.7,29.29,SW,219,3.5,3.5,38,0.00,CLR,,0.00,WeatherDisplay:10.37,2013-04-10 22:35:00,
2013-04-10 18:40:00,84.0,56.4,29.29,WSW,237,3.5,3.5,39,0.00,CLR,,0.00,WeatherDisplay:10.37,2013-04-10 22:40:00,
2013-04-10 18:45:00,83.6,55.3,29.29,West,260,11.5,11.5,38,0.00,CLR,,0.00,WeatherDisplay:10.37,2013-04-10 22:45:00,
2013-04-10 18:50:00,83.4,55.8,29.29,WSW,246,11.5,11.5,39,0.00,CLR,,0.00,WeatherDisplay:10.37,2013-04-10 22:50:00,
2013-04-10 18:55:00,83.0,56.2,29.29,SW,227,1.1,1.1,40,0.00,CLR,,0.00,WeatherDisplay:10.37,2013-04-10 22:55:00,
2013-04-10 19:00:00,82.8,56.0,29.29,West,271,4.6,4.6,40,0.00,CLR,,0.00,WeatherDisplay:10.37,2013-04-10 23:00:00,
2013-04-10 19:05:00,82.6,55.8,29.29,WSW,246,2.3,3.1,40,0.00,CLR,,0.00,WeatherDisplay:10.37,2013-04-10 23:05:00,
2013-04-10 19:10:00,82.2,55.5,29.29,South,174,0.0,0.5,40,0.00,CLR,,0.00,WeatherDisplay:10.37,2013-04-10 23:10:00,
2013-04-10 19:15:00,81.8,55.8,29.28,SSW,209,0.0,0.0,41,0.00,CLR,,0.00,WeatherDisplay:10.37,2013-04-10 23:15:00,
2013-04-10 19:20:00,81.4,56.1,29.28,SW,224,5.8,5.8,42,0.00,CLR,,0.00,WeatherDisplay:10.37,2013-04-10 23:20:00,
2013-04-10 19:25:00,81.2,55.9,29.28,SW,217,4.6,4.6,42,0.00,CLR,,0.00,WeatherDisplay:10.37,2013-04-10 23:25:00,
2013-04-10 19:30:00,81.2,55.3,29.28,SW,223,8.1,8.1,41,0.00,CLR,,0.00,WeatherDisplay:10.37,2013-04-10 23:30:00,
2013-04-10 19:35:00,81.1,55.8,29.28,SSW,203,8.0,8.0,42,0.00,CLR,,0.00,WeatherDisplay:10.37,2013-04-10 23:35:00,
2013-04-10 19:40:00,80.9,55.7,29.28,WSW,244,6.9,6.9,42,0.00,CLR,,0.00,WeatherDisplay:10.37,2013-04-10 23:40:00,
2013-04-10 19:45:00,80.5,55.9,29.28,WSW,244,6.9,6.9,43,0.00,CLR,,0.00,WeatherDisplay:10.37,2013-04-10 23:45:00,
2013-04-10 19:50:00,80.3,55.8,29.28,SSW,212,2.3,0.0,43,0.00,CLR,,0.00,WeatherDisplay:10.37,2013-04-10 23:50:00,
2013-04-10 19:55:00,79.9,56.0,29.28,SSW,208,0.0,0.5,44,0.00,CLR,,0.00,WeatherDisplay:10.37,2013-04-10 23:55:00,
2013-04-10 20:00:00,79.6,55.8,29.28,WSW,239,5.8,0.0,44,0.00,CLR,,0.00,WeatherDisplay:10.37,2013-04-11 00:00:00,
2013-04-10 20:05:00,79.0,55.8,29.28,SW,236,1.1,1.1,45,0.00,CLR,,0.00,WeatherDisplay:10.37,2013-04-11 00:05:00,
2013-04-10 20:10:00,78.6,56.1,29.28,SW,236,0.0,0.6,46,0.00,CLR,,0.00,WeatherDisplay:10.37,2013-04-11 00:10:00,
2013-04-10 20:15:00,78.5,56.0,29.28,SW,236,0.0,0.0,46,0.00,CLR,,0.00,WeatherDisplay:10.37,2013-04-11 00:15:00,
2013-04-10 20:20:00,78.3,56.4,29.28,SW,234,0.0,0.6,47,0.00,CLR,,0.00,WeatherDisplay:10.37,2013-04-11 00:20:00,
2013-04-10 20:25:00,77.9,56.6,29.28,SW,234,2.3,0.0,48,0.00,CLR,,0.00,WeatherDisplay:10.37,2013-04-11 00:25:00,
2013-04-10 20:30:00,77.6,56.9,29.28,SW,234,2.3,2.3,49,0.00,CLR,,0.00,WeatherDisplay:10.37,2013-04-11 00:30:00,
2013-04-10 20:35:00,77.4,56.7,29.28,SSW,203,2.3,0.0,49,0.00,CLR,,0.00,WeatherDisplay:10.37,2013-04-11 00:35:00,
2013-04-10 20:40:00,77.2,57.1,29.28,SSW,200,1.1,1.9,50,0.00,CLR,,0.00,WeatherDisplay:10.37,2013-04-11 00:40:00,
2013-04-10 20:45:00,77.2,57.1,29.29,WSW,243,4.6,4.6,50,0.00,CLR,,0.00,WeatherDisplay:10.37,2013-04-11 00:45:00,
2013-04-10 20:50:00,77.0,57.5,29.29,WSW,241,4.6,4.6,51,0.00,CLR,,0.00,WeatherDisplay:10.37,2013-04-11 00:50:00,
2013-04-10 20:55:00,77.0,57.5,29.29,West,271,2.3,2.3,51,0.00,CLR,,0.00,WeatherDisplay:10.37,2013-04-11 00:55:00,
2013-04-10 21:00:00,77.0,57.5,29.29,SSW,213,8.1,8.1,51,0.00,CLR,,0.00,WeatherDisplay:10.37,2013-04-11 01:00:00,
2013-04-10 21:05:00,77.0,57.5,29.29,SW,220,6.0,6.0,51,0.00,CLR,,0.00,WeatherDisplay:10.37,2013-04-11 01:05:00,
2013-04-10 21:10:00,77.0,57.5,29.29,South,184,3.5,3.5,51,0.00,CLR,,0.00,WeatherDisplay:10.37,2013-04-11 01:10:00,
2013-04-10 21:15:00,76.8,57.3,29.30,SSW,212,5.8,5.8,51,0.00,CLR,,0.00,WeatherDisplay:10.37,2013-04-11 01:15:00,
2013-04-10 21:20:00,76.7,57.7,29.30,SW,229,3.5,3.5,52,0.00,CLR,,0.00,WeatherDisplay:10.37,2013-04-11 01:20:00,
2013-04-10 21:25:00,76.3,57.4,29.30,SSW,195,1.1,1.1,52,0.00,CLR,,0.00,WeatherDisplay:10.37,2013-04-11 01:25:00,
2013-04-10 21:30:00,76.0,57.6,29.30,SW,230,5.8,5.8,53,0.00,CLR,,0.00,WeatherDisplay:10.37,2013-04-11 01:30:00,
2013-04-10 21:35:00,75.8,58.0,29.30,SSW,212,1.1,1.1,54,0.00,CLR,,0.00,WeatherDisplay:10.37,2013-04-11 01:35:00,
2013-04-10 21:40:00,75.4,57.6,29.30,SSW,203,1.1,1.1,54,0.00,CLR,,0.00,WeatherDisplay:10.37,2013-04-11 01:40:00,
2013-04-10 21:45:00,75.3,58.0,29.30,SSW,213,6.9,6.9,55,0.00,CLR,,0.00,WeatherDisplay:10.37,2013-04-11 01:45:00,
2013-04-10 21:50:00,75.1,57.8,29.30,SW,215,5.8,5.8,55,0.00,CLR,,0.00,WeatherDisplay:10.37,2013-04-11 01:50:00,
2013-04-10 21:55:00,75.1,58.3,29.30,WSW,239,6.9,6.9,56,0.00,CLR,,0.00,WeatherDisplay:10.37,2013-04-11 01:55:00,
2013-04-10 22:00:00,74.9,58.1,29.30,SSW,208,5.8,5.8,56,0.00,CLR,,0.00,WeatherDisplay:10.37,2013-04-11 02:00:00,
2013-04-10 22:05:00,74.9,58.6,29.30,WSW,244,2.3,2.3,57,0.00,CLR,,0.00,WeatherDisplay:10.37,2013-04-11 02:05:00,
2013-04-10 22:10:00,74.9,58.6,29.30,SW,227,6.9,6.9,57,0.00,CLR,,0.00,WeatherDisplay:10.37,2013-04-11 02:10:00,
2013-04-10 22:15:00,74.7,58.5,29.30,SW,224,3.5,3.5,57,0.00,CLR,,0.00,WeatherDisplay:10.37,2013-04-11 02:15:00,
2013-04-10 22:20:00,74.6,58.4,29.30,WSW,243,6.9,6.9,57,0.00,CLR,,0.00,WeatherDisplay:10.37,2013-04-11 02:20:00,
2013-04-10 22:25:00,74.6,58.4,29.30,SSW,206,5.8,5.8,57,0.00,CLR,,0.00,WeatherDisplay:10.37,2013-04-11 02:25:00,
2013-04-10 22:30:00,74.4,58.7,29.30,SW,229,5.8,5.8,58,0.00,CLR,,0.00,WeatherDisplay:10.37,2013-04-11 02:30:00,
2013-04-10 22:35:00,74.2,58.5,29.30,SW,227,5.8,5.8,58,0.00,CLR,,0.00,WeatherDisplay:10.37,2013-04-11 02:35:00,
2013-04-10 22:40:00,74.0,58.3,29.30,SSW,210,9.2,9.2,58,0.00,CLR,,0.00,WeatherDisplay:10.37,2013-04-11 02:40:00,
2013-04-10 22:45:00,74.0,58.3,29.30,SW,227,3.5,3.5,58,0.00,CLR,,0.00,WeatherDisplay:10.37,2013-04-11 02:45:00,
2013-04-10 22:50:00,74.2,58.5,29.30,SW,232,5.8,5.8,58,0.00,CLR,,0.00,WeatherDisplay:10.37,2013-04-11 02:50:00,
2013-04-10 22:55:00,74.2,58.5,29.30,WSW,240,8.1,8.1,58,0.00,CLR,,0.00,WeatherDisplay:10.37,2013-04-11 02:55:00,
2013-04-10 23:00:00,74.2,58.5,29.30,WSW,241,6.9,6.9,58,0.00,CLR,,0.00,WeatherDisplay:10.37,2013-04-11 03:00:00,
2013-04-10 23:05:00,74.2,58.5,29.30,WSW,240,6.9,6.9,58,0.00,CLR,,0.00,WeatherDisplay:10.37,2013-04-11 03:05:00,
2013-04-10 23:10:00,74.0,58.8,29.30,South,182,5.8,5.8,59,0.00,CLR,,0.00,WeatherDisplay:10.37,2013-04-11 03:10:00,
2013-04-10 23:15:00,73.9,58.7,29.30,SW,217,4.6,4.6,59,0.00,CLR,,0.00,WeatherDisplay:10.37,2013-04-11 03:15:00,
2013-04-10 23:20:00,73.7,58.5,29.30,SW,224,5.8,5.8,59,0.00,CLR,,0.00,WeatherDisplay:10.37,2013-04-11 03:20:00,
2013-04-10 23:25:00,73.5,58.8,29.30,SSW,210,6.9,6.9,60,0.00,CLR,,0.00,WeatherDisplay:10.37,2013-04-11 03:25:00,
2013-04-10 23:30:00,73.5,58.8,29.30,SW,230,3.5,3.5,60,0.00,CLR,,0.00,WeatherDisplay:10.37,2013-04-11 03:30:00,
2013-04-10 23:35:00,73.3,58.6,29.30,WSW,250,6.9,6.9,60,0.00,CLR,,0.00,WeatherDisplay:10.37,2013-04-11 03:35:00,
2013-04-10 23:40:00,73.2,58.5,29.31,SW,219,8.1,8.1,60,0.00,CLR,,0.00,WeatherDisplay:10.37,2013-04-11 03:40:00,
2013-04-10 23:45:00,73.0,58.8,29.31,SW,222,2.0,2.0,61,0.00,CLR,,0.00,WeatherDisplay:10.37,2013-04-11 03:45:00,
2013-04-10 23:50:00,72.7,58.9,29.31,SW,215,0.0,0.0,62,0.00,CLR,,0.00,WeatherDisplay:10.37,2013-04-11 03:50:00,
2013-04-10 23:55:00,72.3,59.0,29.31,South,185,0.0,0.0,63,0.00,CLR,,0.00,WeatherDisplay:10.37,2013-04-11 03:55:00,